Time;durP1;ratioP1;P1;durP2;ratioP2;P2;SDS_P1;SDS_P2;PMS_P1;PMS_P2;Temp;Humidity;BMP_temperature;BMP_pressure;BME280_temperature;BME280_humidity;BME280_pressure;Samples;Min_cycle;Max_cycle;Signal;HPM_P1;HPM_P2
2021/10/17 00:00:26;;;;;;;25.30;18.80;;;;;;;14.10;50.87;100716.20;117647;1184;23416;-58
2021/10/17 00:02:55;;;;;;;24.00;17.70;;;;;;;14.14;50.82;100715.76;117513;1182;23536;-56
2021/10/17 00:05:27;;;;;;;22.50;18.00;;;;;;;14.14;50.98;100711.33;117501;1183;21855;-59
2021/10/17 00:07:56;;;;;;;25.10;18.90;;;;;;;14.15;50.80;100712.56;117553;1184;22906;-55
2021/10/17 00:10:26;;;;;;;25.90;19.40;;;;;;;14.16;50.75;100708.64;117531;1182;21855;-56
2021/10/17 00:12:55;;;;;;;25.10;19.90;;;;;;;14.16;50.86;100710.94;117490;1185;21960;-58
2021/10/17 00:15:24;;;;;;;24.30;19.10;;;;;;;14.17;50.71;100710.73;117578;1184;21864;-59
2021/10/17 00:17:52;;;;;;;26.80;20.20;;;;;;;14.17;50.85;100710.92;117498;1184;21858;-59
2021/10/17 00:20:21;;;;;;;24.60;20.60;;;;;;;14.16;50.75;100709.53;117527;1185;23441;-58
2021/10/17 00:22:50;;;;;;;28.70;20.80;;;;;;;14.16;50.68;100711.30;117541;1181;22931;-56
2021/10/17 00:25:18;;;;;;;28.00;21.40;;;;;;;14.11;50.80;100708.04;117354;1182;21854;-56
2021/10/17 00:27:47;;;;;;;26.90;21.40;;;;;;;14.07;50.95;100707.62;117567;1183;21852;-59
2021/10/17 00:30:15;;;;;;;27.60;21.10;;;;;;;14.04;50.95;100706.80;117511;1182;22915;-58
2021/10/17 00:32:44;;;;;;;28.50;21.00;;;;;;;14.10;50.87;100708.26;117429;1185;23464;-59
2021/10/17 00:35:13;;;;;;;28.20;22.20;;;;;;;14.13;50.75;100702.54;117415;1185;23296;-56
2021/10/17 00:37:41;;;;;;;28.70;21.20;;;;;;;14.08;50.84;100703.69;117404;1185;21853;-58
2021/10/17 00:40:12;;;;;;;27.60;22.10;;;;;;;14.03;51.00;100701.16;117522;1182;22359;-58
2021/10/17 00:42:40;;;;;;;30.00;21.70;;;;;;;14.02;50.92;100701.71;117514;1176;21858;-56
2021/10/17 00:45:11;;;;;;;27.20;21.50;;;;;;;14.01;50.89;100698.91;117497;1186;21917;-56
2021/10/17 00:47:40;;;;;;;27.20;21.40;;;;;;;14.02;50.89;100698.00;117546;1179;21858;-59
2021/10/17 00:50:10;;;;;;;30.10;21.60;;;;;;;14.02;50.86;100696.95;117517;1184;21845;-55
2021/10/17 00:52:39;;;;;;;25.60;21.20;;;;;;;14.03;50.88;100702.23;117542;1182;23534;-56
2021/10/17 00:55:08;;;;;;;27.80;20.70;;;;;;;14.04;50.77;100700.25;117434;1182;21879;-58
2021/10/17 00:57:36;;;;;;;29.40;21.50;;;;;;;14.04;50.96;100702.56;117397;1185;21994;-58
2021/10/17 01:00:05;;;;;;;29.50;22.20;;;;;;;14.04;50.90;100703.45;117512;1176;21842;-56
2021/10/17 01:02:33;;;;;;;26.60;20.90;;;;;;;14.02;50.93;100703.67;117563;1182;21845;-58
2021/10/17 01:05:02;;;;;;;28.60;21.60;;;;;;;14.03;50.89;100704.52;117393;1185;23442;-56
2021/10/17 01:07:30;;;;;;;31.10;23.50;;;;;;;14.01;50.91;100706.85;117531;1185;23427;-56
2021/10/17 01:10:15;;;;;;;32.50;24.10;;;;;;;14.01;50.87;100705.10;117439;1182;23439;-59
2021/10/17 01:12:44;;;;;;;32.20;24.50;;;;;;;14.01;50.79;100704.39;117525;1186;22915;-57
2021/10/17 01:15:12;;;;;;;33.70;24.90;;;;;;;13.95;50.88;100707.31;117518;1184;21860;-55
2021/10/17 01:17:41;;;;;;;32.20;24.20;;;;;;;13.91;51.04;100707.24;117368;1185;23469;-59
2021/10/17 01:20:09;;;;;;;31.20;25.30;;;;;;;13.91;51.13;100711.84;117559;1182;21871;-56
2021/10/17 01:22:39;;;;;;;34.70;25.50;;;;;;;13.90;51.22;100711.50;117475;1185;21865;-59
2021/10/17 01:25:08;;;;;;;31.80;24.30;;;;;;;13.90;51.06;100715.03;117559;1186;21967;-56
2021/10/17 01:27:39;;;;;;;32.80;25.90;;;;;;;13.91;50.93;100712.53;117441;1182;23458;-57
2021/10/17 01:30:08;;;;;;;33.60;26.20;;;;;;;13.93;50.97;100713.36;117389;1184;23522;-58
2021/10/17 01:32:39;;;;;;;35.50;25.30;;;;;;;13.92;51.05;100716.73;117382;1183;23901;-55
2021/10/17 01:35:07;;;;;;;36.90;27.10;;;;;;;13.99;50.97;100719.95;117520;1183;23439;-58
2021/10/17 01:37:35;;;;;;;33.30;26.70;;;;;;;14.00;50.94;100718.70;117510;1182;23451;-56
2021/10/17 01:40:05;;;;;;;30.80;25.20;;;;;;;14.00;50.91;100719.75;117552;1184;23003;-58
2021/10/17 01:42:33;;;;;;;34.70;25.40;;;;;;;14.01;50.92;100717.61;117529;1186;22926;-58
2021/10/17 01:45:01;;;;;;;36.00;26.20;;;;;;;14.01;50.85;100721.16;117484;1183;21886;-56
2021/10/17 01:47:29;;;;;;;36.40;26.60;;;;;;;14.00;50.90;100720.82;117371;1184;23445;-56
2021/10/17 01:49:58;;;;;;;34.20;26.40;;;;;;;14.00;50.91;100724.33;117403;1185;21858;-58
2021/10/17 01:52:26;;;;;;;33.00;26.10;;;;;;;13.98;51.04;100725.27;117493;1186;21860;-60
2021/10/17 01:54:54;;;;;;;34.80;27.00;;;;;;;13.98;50.98;100728.80;117555;1184;23468;-59
2021/10/17 01:57:22;;;;;;;36.30;27.80;;;;;;;14.00;50.86;100727.69;117527;1182;22964;-59
2021/10/17 01:59:51;;;;;;;36.10;26.40;;;;;;;14.00;50.76;100724.00;117515;1184;21858;-58
2021/10/17 02:02:19;;;;;;;36.30;26.10;;;;;;;13.97;50.88;100728.81;117484;1183;21998;-59
2021/10/17 02:04:48;;;;;;;36.00;28.30;;;;;;;13.92;51.01;100731.02;117539;1182;23439;-60
2021/10/17 02:07:16;;;;;;;36.90;28.40;;;;;;;13.87;51.04;100728.31;117483;1182;21854;-57
2021/10/17 02:09:45;;;;;;;40.10;28.50;;;;;;;13.84;51.10;100729.97;117406;1183;23466;-57
2021/10/17 02:12:15;;;;;;;31.90;26.60;;;;;;;13.84;51.05;100729.80;117381;1184;23433;-59
2021/10/17 02:14:43;;;;;;;38.30;28.60;;;;;;;13.79;51.07;100733.41;117488;1184;23464;-59
2021/10/17 02:17:32;;;;;;;36.50;26.30;;;;;;;13.76;51.13;100735.75;117472;1185;22167;-59
2021/10/17 02:20:03;;;;;;;36.30;26.60;;;;;;;13.79;50.93;100736.23;117556;1186;23429;-58
2021/10/17 02:22:32;;;;;;;36.50;27.00;;;;;;;13.83;50.96;100738.27;117531;1182;23897;-57
2021/10/17 02:25:00;;;;;;;37.00;27.70;;;;;;;13.83;50.79;100739.85;117495;1183;21854;-59
2021/10/17 02:27:28;;;;;;;37.80;29.10;;;;;;;13.82;50.94;100735.46;117531;1183;23465;-57
2021/10/17 02:29:56;;;;;;;41.50;29.20;;;;;;;13.84;50.89;100736.48;117531;1182;22818;-57
2021/10/17 02:32:24;;;;;;;35.60;27.80;;;;;;;13.77;50.94;100734.52;117542;1183;21898;-59
2021/10/17 02:34:52;;;;;;;38.70;28.30;;;;;;;13.73;51.10;100738.29;117492;1183;21887;-58
2021/10/17 02:37:21;;;;;;;36.00;27.60;;;;;;;13.71;51.08;100734.09;117375;1185;23442;-58
2021/10/17 02:39:49;;;;;;;38.60;27.50;;;;;;;13.74;50.94;100740.73;117498;1184;23560;-59
2021/10/17 02:42:17;;;;;;;42.50;30.50;;;;;;;13.70;51.03;100734.27;117511;1183;23449;-59
2021/10/17 02:44:45;;;;;;;38.30;27.40;;;;;;;13.69;50.94;100738.01;117548;1182;23465;-59
2021/10/17 02:47:14;;;;;;;41.20;28.40;;;;;;;13.67;51.10;100739.29;117518;1184;24149;-58
2021/10/17 02:49:42;;;;;;;37.60;27.20;;;;;;;13.67;51.01;100742.11;117551;1182;21839;-58
2021/10/17 02:52:10;;;;;;;35.70;26.60;;;;;;;13.66;51.04;100737.53;117572;1185;23429;-59
2021/10/17 02:54:38;;;;;;;36.30;27.50;;;;;;;13.63;51.05;100741.48;117533;1182;21874;-58
2021/10/17 02:57:07;;;;;;;38.50;29.30;;;;;;;13.59;51.15;100739.96;117537;1183;23458;-59
2021/10/17 02:59:35;;;;;;;38.70;27.60;;;;;;;13.56;51.16;100739.67;117405;1184;21858;-59
2021/10/17 03:02:03;;;;;;;38.70;28.70;;;;;;;13.53;51.28;100739.89;117582;1180;21863;-58
2021/10/17 03:04:32;;;;;;;38.00;28.30;;;;;;;13.50;51.24;100733.78;117518;1185;24152;-58
2021/10/17 03:07:00;;;;;;;37.90;28.10;;;;;;;13.46;51.28;100734.91;117489;1182;21855;-59
2021/10/17 03:09:28;;;;;;;38.10;28.40;;;;;;;13.44;51.24;100732.84;117539;1185;23461;-59
2021/10/17 03:11:57;;;;;;;40.80;30.20;;;;;;;13.41;51.35;100738.00;117570;1182;21867;-58
2021/10/17 03:14:25;;;;;;;39.80;28.50;;;;;;;13.39;51.37;100739.77;117496;1185;21845;-58
2021/10/17 03:16:53;;;;;;;38.40;28.80;;;;;;;13.38;51.28;100737.14;117525;1186;21840;-58
2021/10/17 03:19:21;;;;;;;37.40;28.70;;;;;;;13.37;51.26;100737.52;117464;1183;21858;-59
2021/10/17 03:21:49;;;;;;;38.00;28.50;;;;;;;13.36;51.25;100735.60;117336;1185;21874;-58
2021/10/17 03:24:17;;;;;;;35.70;26.70;;;;;;;13.33;51.32;100735.47;117374;1182;23442;-58
2021/10/17 03:26:46;;;;;;;39.30;28.40;;;;;;;13.31;51.36;100737.09;117396;1184;21858;-58
2021/10/17 03:29:14;;;;;;;38.00;28.70;;;;;;;13.31;51.42;100735.85;117405;1185;21873;-59
2021/10/17 03:31:43;;;;;;;39.90;27.50;;;;;;;13.31;51.34;100738.33;117553;1184;21858;-58
2021/10/17 03:34:11;;;;;;;41.30;28.00;;;;;;;13.31;51.44;100740.09;117437;1185;23461;-58
2021/10/17 03:36:41;;;;;;;39.10;28.60;;;;;;;13.31;51.52;100742.02;117504;1182;23702;-58
2021/10/17 03:39:09;;;;;;;39.70;30.60;;;;;;;13.29;51.36;100743.83;117548;1183;23890;-59
2021/10/17 03:41:37;;;;;;;45.40;29.90;;;;;;;13.28;51.46;100748.25;117462;1182;22619;-57
2021/10/17 03:44:05;;;;;;;37.80;29.10;;;;;;;13.30;51.43;100749.10;117517;1182;23474;-57
2021/10/17 03:46:33;;;;;;;39.40;28.20;;;;;;;13.31;51.36;100747.48;117520;1180;22914;-58
2021/10/17 03:49:01;;;;;;;42.60;30.30;;;;;;;13.31;51.47;100747.84;117546;1184;23437;-57
2021/10/17 03:51:30;;;;;;;41.50;29.20;;;;;;;13.33;51.35;100750.63;117538;1185;21858;-58
2021/10/17 03:53:58;;;;;;;39.70;28.90;;;;;;;13.33;51.58;100747.10;117415;1185;21858;-58
2021/10/17 03:56:26;;;;;;;39.50;28.60;;;;;;;13.35;51.45;100754.11;117274;1186;23447;-58
2021/10/17 03:58:55;;;;;;;42.50;28.80;;;;;;;13.36;51.45;100758.85;117283;1185;21899;-59
2021/10/17 04:01:23;;;;;;;40.10;28.80;;;;;;;13.39;51.40;100759.70;117469;1185;21897;-57
2021/10/17 04:03:51;;;;;;;43.20;29.30;;;;;;;13.40;51.47;100762.85;117442;1182;22843;-58
2021/10/17 04:06:20;;;;;;;43.70;29.70;;;;;;;13.40;51.64;100762.14;117493;1185;21854;-57
2021/10/17 04:08:48;;;;;;;41.50;30.00;;;;;;;13.40;51.61;100761.61;117373;1185;24210;-57
2021/10/17 04:11:17;;;;;;;40.50;29.70;;;;;;;13.39;51.54;100766.55;117429;1182;21858;-57
2021/10/17 04:13:45;;;;;;;39.70;28.70;;;;;;;13.38;51.44;100768.52;117408;1183;23440;-58
2021/10/17 04:16:13;;;;;;;42.90;30.30;;;;;;;13.39;51.55;100771.86;117329;1184;23674;-57
2021/10/17 04:19:03;;;;;;;39.50;30.70;;;;;;;13.41;51.52;100770.77;117508;1180;21855;-57
2021/10/17 04:21:32;;;;;;;;;;;;;;;13.41;51.51;100772.20;117529;1184;23343;-58
2021/10/17 04:24:00;;;;;;;42.90;28.60;;;;;;;13.39;51.47;100776.27;117511;1180;21858;-59
2021/10/17 04:26:28;;;;;;;42.30;30.90;;;;;;;13.38;51.64;100778.73;117458;1182;22912;-58
2021/10/17 04:28:57;;;;;;;44.00;31.20;;;;;;;13.39;51.58;100781.02;117515;1176;23217;-58
2021/10/17 04:31:25;;;;;;;44.20;32.60;;;;;;;13.40;51.56;100782.24;117514;1183;23432;-58
2021/10/17 04:33:53;;;;;;;42.40;32.20;;;;;;;13.41;51.66;100785.23;117518;1183;23547;-58
2021/10/17 04:36:22;;;;;;;43.90;31.40;;;;;;;13.42;51.63;100787.52;117456;1182;24218;-58
2021/10/17 04:38:51;;;;;;;46.60;31.80;;;;;;;13.48;51.54;100788.81;117394;1185;21857;-58
2021/10/17 04:41:19;;;;;;;44.50;31.20;;;;;;;13.52;51.43;100789.98;117444;1184;21885;-58
2021/10/17 04:43:47;;;;;;;42.30;32.00;;;;;;;13.54;51.51;100791.01;117332;1184;21848;-58
2021/10/17 04:46:16;;;;;;;46.90;32.10;;;;;;;13.56;51.45;100795.73;117488;1185;23445;-58
2021/10/17 04:48:44;;;;;;;44.30;32.60;;;;;;;13.58;51.49;100800.64;117477;1183;21927;-58
2021/10/17 04:51:13;;;;;;;44.80;32.00;;;;;;;13.56;51.51;100802.09;117547;1182;23464;-56
2021/10/17 04:53:41;;;;;;;44.90;32.10;;;;;;;13.55;51.50;100804.74;117517;1183;23449;-55
2021/10/17 04:56:09;;;;;;;44.90;33.20;;;;;;;13.57;51.51;100807.90;117442;1184;22310;-56
2021/10/17 04:58:38;;;;;;;43.40;32.40;;;;;;;13.57;51.64;100809.12;117436;1183;23445;-56
2021/10/17 05:01:08;;;;;;;45.60;32.50;;;;;;;13.58;51.54;100813.15;117379;1182;23453;-55
2021/10/17 05:03:38;;;;;;;45.20;33.20;;;;;;;13.61;51.49;100812.39;117387;1182;21865;-59
2021/10/17 05:06:06;;;;;;;43.50;31.60;;;;;;;13.64;51.50;100816.40;118287;1183;21860;-57
2021/10/17 05:08:34;;;;;;;45.20;32.50;;;;;;;13.65;51.52;100813.55;117471;1183;21854;-59
2021/10/17 05:11:02;;;;;;;43.60;32.50;;;;;;;13.67;51.61;100816.17;117481;1186;22515;-58
2021/10/17 05:13:30;;;;;;;48.10;32.60;;;;;;;13.69;51.56;100817.36;117532;1185;22905;-57
2021/10/17 05:15:58;;;;;;;42.50;32.10;;;;;;;13.72;51.59;100818.73;117429;1185;23442;-58
2021/10/17 05:18:27;;;;;;;46.20;32.00;;;;;;;13.73;51.58;100822.58;117405;1185;23468;-58
2021/10/17 05:20:55;;;;;;;41.30;32.10;;;;;;;13.73;51.70;100822.59;117400;1184;21863;-59
2021/10/17 05:23:23;;;;;;;48.80;32.60;;;;;;;13.68;51.69;100820.73;117541;1185;23465;-58
2021/10/17 05:25:51;;;;;;;45.40;32.90;;;;;;;13.70;51.84;100825.82;117449;1183;21849;-58
2021/10/17 05:28:20;;;;;;;49.60;32.30;;;;;;;13.72;51.78;100827.19;117461;1185;21852;-57
2021/10/17 05:30:49;;;;;;;45.10;31.10;;;;;;;13.74;51.88;100828.73;117508;1186;21961;-58
2021/10/17 05:33:18;;;;;;;45.30;32.50;;;;;;;13.76;51.80;100831.69;117515;1183;21861;-57
2021/10/17 05:35:46;;;;;;;49.60;32.10;;;;;;;13.77;51.91;100836.96;117495;1185;23474;-59
2021/10/17 05:38:14;;;;;;;46.90;31.60;;;;;;;13.78;51.86;100837.66;117419;1184;22915;-57
2021/10/17 05:40:43;;;;;;;43.20;31.90;;;;;;;13.80;51.90;100842.92;117532;1185;23510;-57
2021/10/17 05:43:11;;;;;;;39.80;30.80;;;;;;;13.82;51.97;100840.94;117555;1185;21855;-59
2021/10/17 05:45:40;;;;;;;46.70;32.80;;;;;;;13.84;51.95;100842.49;117512;1179;24141;-57
2021/10/17 05:48:08;;;;;;;44.90;32.00;;;;;;;13.87;51.97;100839.63;117455;1179;23442;-57
2021/10/17 05:50:36;;;;;;;44.40;30.10;;;;;;;13.89;51.91;100843.64;117332;1179;21900;-57
2021/10/17 05:53:05;;;;;;;42.80;30.80;;;;;;;13.91;51.84;100846.59;117351;1181;21854;-57
2021/10/17 05:55:33;;;;;;;43.00;31.20;;;;;;;13.91;51.87;100849.41;117371;1180;22982;-58
2021/10/17 05:58:02;;;;;;;42.30;31.20;;;;;;;13.92;51.86;100849.57;117478;1179;23721;-57
2021/10/17 06:00:30;;;;;;;47.20;31.50;;;;;;;13.95;51.81;100853.75;117397;1179;21948;-58
2021/10/17 06:03:00;;;;;;;48.00;34.30;;;;;;;13.95;51.89;100855.33;117623;1179;24712;-58
2021/10/17 06:05:30;;;;;;;;;;;;;;;13.96;51.94;100856.21;117434;1185;21836;-58
2021/10/17 06:08:04;;;;;;;34.40;26.70;;;;;;;13.97;51.99;100859.54;117466;1185;23429;-56
2021/10/17 06:10:32;;;;;;;38.20;27.50;;;;;;;13.97;51.95;100857.95;117422;1183;22392;-56
2021/10/17 06:13:00;;;;;;;36.40;28.00;;;;;;;13.98;52.01;100862.34;117458;1186;21848;-58
2021/10/17 06:15:29;;;;;;;39.00;28.20;;;;;;;14.00;51.99;100858.42;117432;1185;23465;-58
2021/10/17 06:17:57;;;;;;;39.40;28.60;;;;;;;14.00;52.09;100864.42;117479;1184;21858;-57
2021/10/17 06:20:25;;;;;;;35.70;27.30;;;;;;;14.05;52.03;100864.33;117408;1179;24152;-59
2021/10/17 06:22:54;;;;;;;34.30;26.70;;;;;;;14.08;51.99;100863.93;117459;1185;23525;-59
2021/10/17 06:25:22;;;;;;;35.40;28.30;;;;;;;14.11;52.02;100862.81;117472;1183;21858;-58
2021/10/17 06:27:50;;;;;;;36.40;26.40;;;;;;;14.14;52.00;100867.69;117427;1182;23560;-59
2021/10/17 06:30:18;;;;;;;39.60;27.40;;;;;;;14.16;52.10;100865.17;117466;1183;21853;-57
2021/10/17 06:32:46;;;;;;;34.90;26.20;;;;;;;14.18;52.04;100864.08;117325;1185;21876;-59
2021/10/17 06:35:14;;;;;;;34.30;25.60;;;;;;;14.21;52.06;100862.09;117392;1183;21854;-57
2021/10/17 06:37:43;;;;;;;32.30;25.80;;;;;;;14.24;52.03;100863.44;117449;1185;23445;-60
2021/10/17 06:40:12;;;;;;;33.70;25.60;;;;;;;14.29;52.24;100867.92;117494;1184;21860;-57
2021/10/17 06:42:40;;;;;;;62.50;30.70;;;;;;;14.35;52.18;100869.05;117546;1185;24237;-58
2021/10/17 06:45:08;;;;;;;35.70;24.90;;;;;;;14.41;52.15;100870.68;117421;1185;23462;-59
2021/10/17 06:47:36;;;;;;;40.10;27.70;;;;;;;14.45;52.14;100870.61;117514;1176;23618;-58
2021/10/17 06:50:05;;;;;;;32.20;25.00;;;;;;;14.50;52.11;100870.34;117463;1185;23458;-58
2021/10/17 06:52:33;;;;;;;30.80;23.40;;;;;;;14.57;52.20;100870.73;117488;1183;23618;-59
2021/10/17 06:55:01;;;;;;;29.20;22.60;;;;;;;14.64;52.31;100870.38;117502;1186;21848;-59
2021/10/17 06:57:30;;;;;;;30.50;23.40;;;;;;;14.72;52.27;100870.62;117552;1184;23468;-58
2021/10/17 06:59:58;;;;;;;29.60;23.10;;;;;;;14.79;52.25;100867.80;117503;1183;23442;-59
2021/10/17 07:02:26;;;;;;;29.80;22.80;;;;;;;14.86;52.30;100873.48;117523;1183;21854;-59
2021/10/17 07:04:54;;;;;;;41.30;24.50;;;;;;;14.95;52.22;100877.88;117532;1186;23448;-57
2021/10/17 07:07:22;;;;;;;51.80;26.00;;;;;;;15.01;52.24;100879.52;117532;1186;22900;-57
2021/10/17 07:09:51;;;;;;;34.30;23.10;;;;;;;15.07;52.12;100879.72;117499;1185;21845;-59
2021/10/17 07:12:39;;;;;;;25.20;21.10;;;;;;;15.14;52.22;100880.48;117479;1186;21854;-58
2021/10/17 07:15:07;;;;;;;24.20;19.10;;;;;;;15.24;52.10;100880.91;117450;1183;21845;-60
2021/10/17 07:17:35;;;;;;;33.90;22.70;;;;;;;15.27;52.14;100881.74;117559;1183;21857;-59
2021/10/17 07:20:12;;;;;;;39.50;22.80;;;;;;;15.29;52.22;100882.39;117368;1182;23448;-59
2021/10/17 07:22:40;;;;;;;64.40;26.70;;;;;;;15.33;52.17;100877.89;117430;1185;22162;-58
2021/10/17 07:25:08;;;;;;;29.50;20.30;;;;;;;15.35;52.12;100884.73;117399;1185;21854;-58
2021/10/17 07:27:36;;;;;;;29.50;20.50;;;;;;;15.41;52.17;100884.93;117437;1183;23459;-58
2021/10/17 07:30:05;;;;;;;29.80;20.10;;;;;;;15.46;52.20;100885.52;117353;1183;21866;-60
2021/10/17 07:32:35;;;;;;;64.00;25.20;;;;;;;15.56;52.08;100881.39;117436;1185;21851;-57
2021/10/17 07:35:04;;;;;;;26.30;19.90;;;;;;;15.64;52.08;100886.87;117386;1184;21893;-57
2021/10/17 07:37:32;;;;;;;24.80;19.10;;;;;;;15.68;52.09;100881.80;117483;1184;23442;-59
2021/10/17 07:40:00;;;;;;;24.20;18.50;;;;;;;15.68;52.23;100881.29;117481;1186;21887;-59
2021/10/17 07:42:29;;;;;;;30.00;20.60;;;;;;;15.72;52.34;100885.07;117521;1185;23442;-58
2021/10/17 07:44:58;;;;;;;25.50;19.10;;;;;;;15.76;52.26;100885.85;117382;1185;21867;-61
2021/10/17 07:47:26;;;;;;;25.00;18.50;;;;;;;15.81;52.28;100885.73;117483;1184;21854;-59
2021/10/17 07:49:54;;;;;;;32.80;19.80;;;;;;;15.84;52.36;100886.17;117373;1185;23471;-57
2021/10/17 07:52:22;;;;;;;28.30;21.60;;;;;;;15.88;52.21;100885.39;117435;1182;21856;-58
2021/10/17 07:54:51;;;;;;;27.30;20.70;;;;;;;15.91;52.23;100886.17;117485;1185;23468;-60
2021/10/17 07:57:19;;;;;;;27.60;19.50;;;;;;;15.93;52.33;100884.90;117492;1186;23451;-58
2021/10/17 07:59:47;;;;;;;39.00;23.20;;;;;;;15.96;52.38;100886.77;117393;1185;23469;-58
2021/10/17 08:02:16;;;;;;;28.90;20.40;;;;;;;16.00;52.28;100883.83;117619;1182;23436;-58
2021/10/17 08:04:48;;;;;;;23.10;18.30;;;;;;;16.03;52.24;100883.39;117495;1186;21856;-57
2021/10/17 08:07:17;;;;;;;22.00;17.90;;;;;;;16.08;52.38;100883.27;117352;1185;21854;-59
2021/10/17 08:09:45;;;;;;;25.80;18.80;;;;;;;16.11;52.25;100879.45;117541;1182;22912;-60
2021/10/17 08:12:13;;;;;;;22.50;17.60;;;;;;;16.15;52.25;100879.36;117354;1185;21901;-60
2021/10/17 08:14:42;;;;;;;27.50;18.60;;;;;;;16.16;52.40;100885.89;117375;1182;24156;-59
2021/10/17 08:17:11;;;;;;;24.60;18.40;;;;;;;16.22;52.23;100884.13;117527;1182;22612;-60
2021/10/17 08:19:39;;;;;;;23.10;17.30;;;;;;;16.19;52.31;100886.85;117476;1184;23468;-60
2021/10/17 08:22:07;;;;;;;24.90;17.60;;;;;;;16.22;52.37;100885.02;117364;1185;23557;-60
2021/10/17 08:24:35;;;;;;;28.70;20.10;;;;;;;16.26;52.38;100884.92;117340;1185;21868;-59
2021/10/17 08:27:04;;;;;;;24.20;18.60;;;;;;;16.29;52.37;100881.64;117441;1185;23453;-59
2021/10/17 08:29:32;;;;;;;23.10;16.90;;;;;;;16.31;52.28;100879.29;118258;1183;22948;-57
2021/10/17 08:32:00;;;;;;;23.80;18.30;;;;;;;16.36;52.32;100880.19;117501;1184;23464;-59
2021/10/17 08:34:29;;;;;;;24.80;18.10;;;;;;;16.43;52.26;100882.31;117577;1184;23442;-60
2021/10/17 08:36:57;;;;;;;23.50;17.10;;;;;;;16.47;52.36;100880.75;117482;1182;23468;-57
2021/10/17 08:39:28;;;;;;;20.70;17.10;;;;;;;16.53;52.36;100883.27;117433;1185;23519;-56
2021/10/17 08:41:56;;;;;;;22.60;17.20;;;;;;;16.53;52.20;100884.67;117378;1183;23455;-56
2021/10/17 08:44:25;;;;;;;23.10;17.90;;;;;;;16.56;52.17;100884.04;117475;1184;23557;-56
2021/10/17 08:46:53;;;;;;;23.60;16.50;;;;;;;16.62;52.21;100883.52;117401;1185;24166;-57
2021/10/17 08:49:22;;;;;;;20.60;16.10;;;;;;;16.75;52.14;100884.05;117368;1183;21866;-57
2021/10/17 08:51:51;;;;;;;22.90;17.00;;;;;;;16.78;52.16;100881.47;117456;1182;23560;-56
2021/10/17 08:54:19;;;;;;;25.40;17.50;;;;;;;16.80;52.12;100883.88;117462;1185;24182;-58
2021/10/17 08:56:48;;;;;;;23.00;16.50;;;;;;;16.88;52.23;100882.05;117438;1184;23530;-56
2021/10/17 08:59:16;;;;;;;26.30;18.40;;;;;;;16.92;52.16;100882.62;117441;1183;23442;-57
2021/10/17 09:01:49;;;;;;;34.50;18.90;;;;;;;16.98;52.13;100885.50;117430;1182;23494;-56
2021/10/17 09:04:17;;;;;;;211.40;32.30;;;;;;;17.02;52.27;100880.23;117309;1185;22839;-57
2021/10/17 09:06:47;;;;;;;30.60;19.30;;;;;;;17.13;52.26;100880.42;117211;1186;23446;-59
2021/10/17 09:09:21;;;;;;;27.10;16.80;;;;;;;17.19;52.21;100876.88;117315;1182;21858;-58
2021/10/17 09:11:50;;;;;;;26.90;16.50;;;;;;;17.21;52.06;100880.35;117369;1185;24236;-58
2021/10/17 09:14:23;;;;;;;25.80;16.10;;;;;;;17.20;52.15;100881.42;117502;1183;22329;-58
2021/10/17 09:17:10;;;;;;;28.70;17.00;;;;;;;17.20;52.23;100880.20;117397;1179;24129;-60
2021/10/17 09:19:38;;;;;;;22.40;17.20;;;;;;;17.27;52.43;100879.45;117345;1185;21858;-58
2021/10/17 09:22:09;;;;;;;22.20;17.50;;;;;;;17.33;52.26;100877.48;117412;1189;21854;-60
2021/10/17 09:24:39;;;;;;;21.30;16.20;;;;;;;17.36;52.37;100879.52;117417;1183;22615;-60
2021/10/17 09:27:07;;;;;;;20.90;15.90;;;;;;;17.40;52.41;100879.55;117405;1182;24166;-58
2021/10/17 09:29:36;;;;;;;21.90;16.70;;;;;;;17.43;52.33;100878.05;117479;1185;23442;-58
2021/10/17 09:32:17;;;;;;;27.40;20.20;;;;;;;17.49;52.45;100878.38;117451;1182;21875;-59
2021/10/17 09:34:55;;;;;;;23.30;18.30;;;;;;;17.57;52.41;100872.79;117405;1184;22323;-60
2021/10/17 09:37:49;;;;;;;22.70;17.00;;;;;;;17.68;52.39;100869.59;117396;1185;23442;-57
2021/10/17 09:40:21;;;;;;;20.30;16.20;;;;;;;17.73;52.57;100868.34;117405;1188;23472;-57
2021/10/17 09:43:28;;;;;;;24.70;17.10;;;;;;;17.78;52.45;100868.89;117406;1183;21860;-59
2021/10/17 09:46:08;;;;;;;24.70;16.60;;;;;;;17.78;52.40;100870.84;117415;1182;23485;-58
2021/10/17 09:48:36;;;;;;;24.20;16.00;;;;;;;17.79;52.33;100867.08;117385;1185;21857;-59
2021/10/17 09:51:08;;;;;;;18.70;15.20;;;;;;;17.83;52.18;100867.64;117388;1185;24159;-57
2021/10/17 09:53:51;;;;;;;;;;;;;;;17.84;52.21;100866.89;117494;1183;22822;-58
2021/10/17 09:56:31;;;;;;;22.40;14.90;;;;;;;17.83;52.10;100869.78;117382;1185;21848;-58
2021/10/17 09:59:04;;;;;;;;;;;;;;;17.81;52.17;100870.38;117404;1183;23416;-58
2021/10/17 10:01:35;;;;;;;19.60;14.70;;;;;;;17.84;52.25;100866.91;117486;1185;22631;-58
2021/10/17 10:04:05;;;;;;;22.30;16.00;;;;;;;17.93;52.34;100863.56;117398;1185;23897;-60
2021/10/17 10:06:36;;;;;;;20.70;14.50;;;;;;;18.06;52.37;100858.91;117367;1179;22916;-58
2021/10/17 10:09:09;;;;;;;22.70;15.90;;;;;;;18.16;52.37;100856.95;117377;1176;21848;-58
2021/10/17 10:11:38;;;;;;;22.80;15.50;;;;;;;18.24;52.26;100855.21;117421;1185;22953;-58
2021/10/17 10:14:07;;;;;;;23.80;16.60;;;;;;;18.30;52.25;100853.06;117447;1182;22900;-58
2021/10/17 10:16:36;;;;;;;19.70;15.10;;;;;;;18.33;52.13;100848.32;117401;1184;21913;-58
2021/10/17 10:19:06;;;;;;;29.20;17.60;;;;;;;18.36;52.14;100854.64;117416;1184;23449;-60
2021/10/17 10:21:35;;;;;;;25.00;16.20;;;;;;;18.33;51.92;100850.95;117335;1182;21867;-57
2021/10/17 10:24:07;;;;;;;23.50;15.80;;;;;;;18.32;51.94;100848.39;117343;1185;22185;-60
2021/10/17 10:26:36;;;;;;;18.50;14.10;;;;;;;18.35;51.97;100849.50;117406;1185;21860;-60
2021/10/17 10:29:09;;;;;;;20.00;13.80;;;;;;;18.40;52.03;100849.68;117279;1185;21881;-57
2021/10/17 10:31:40;;;;;;;22.50;15.20;;;;;;;18.41;51.77;100847.83;117496;1185;23445;-57
2021/10/17 10:34:35;;;;;;;21.10;14.40;;;;;;;18.39;51.82;100846.13;117396;1186;23583;-59
2021/10/17 10:37:18;;;;;;;27.00;14.80;;;;;;;18.37;51.89;100844.61;117393;1186;21998;-60
2021/10/17 10:40:04;;;;;;;21.60;14.70;;;;;;;18.35;51.90;100841.30;117385;1185;21861;-57
2021/10/17 10:42:33;;;;;;;18.60;13.20;;;;;;;18.33;51.81;100842.46;117424;1183;23436;-56
2021/10/17 10:45:33;;;;;;;17.60;14.00;;;;;;;18.33;51.79;100839.45;117454;1184;23472;-57
2021/10/17 10:48:10;;;;;;;20.50;13.90;;;;;;;18.33;51.81;100834.14;117409;1182;21971;-57
2021/10/17 10:50:51;;;;;;;18.10;13.30;;;;;;;18.33;51.77;100835.34;117431;1186;23541;-60
2021/10/17 10:53:51;;;;;;;17.80;13.00;;;;;;;18.40;51.59;100834.02;117368;1184;23471;-61
2021/10/17 10:56:56;;;;;;;18.80;14.40;;;;;;;18.42;51.48;100831.11;117366;1184;22908;-59
2021/10/17 10:59:28;;;;;;;20.50;13.40;;;;;;;18.41;51.43;100827.39;116930;1189;21963;-57
2021/10/17 11:02:11;;;;;;;17.80;13.70;;;;;;;18.41;51.37;100824.92;117423;1185;21874;-57
2021/10/17 11:04:42;;;;;;;17.30;13.40;;;;;;;18.39;51.58;100826.96;117384;1185;23450;-56
2021/10/17 11:07:22;;;;;;;20.70;13.10;;;;;;;18.42;51.62;100823.09;117417;1186;22899;-58
2021/10/17 11:09:52;;;;;;;18.30;12.90;;;;;;;18.50;51.60;100821.21;117359;1185;23628;-60
2021/10/17 11:12:38;;;;;;;19.60;13.70;;;;;;;18.62;51.64;100824.33;117378;1182;21899;-59
2021/10/17 11:15:11;;;;;;;18.20;13.70;;;;;;;18.66;51.76;100820.60;117336;1185;23450;-60